createdAt,value
2022-09-15T00:01:21.963Z,100.00
2022-09-15T00:03:50.618Z,100.00
2022-09-15T00:06:19.234Z,100.00
2022-09-15T00:08:47.691Z,100.00
2022-09-15T00:11:18.794Z,100.00
2022-09-15T00:13:47.366Z,100.00
2022-09-15T00:16:16.455Z,100.00
2022-09-15T00:18:47.115Z,100.00
2022-09-15T00:21:17.996Z,100.00
2022-09-15T00:23:46.784Z,100.00
2022-09-15T00:26:17.796Z,100.00
2022-09-15T00:28:46.475Z,100.00
2022-09-15T00:31:18.777Z,100.00
2022-09-15T00:33:49.895Z,100.00
2022-09-15T00:36:19.536Z,100.00
2022-09-15T00:38:47.795Z,100.00
2022-09-15T00:41:19.027Z,100.00
2022-09-15T00:43:51.410Z,100.00
2022-09-15T00:46:21.969Z,100.00
2022-09-15T00:48:57.320Z,100.00
2022-09-15T00:51:32.587Z,100.00
2022-09-15T00:54:03.945Z,100.00
2022-09-15T00:56:34.762Z,100.00
2022-09-15T00:59:06.785Z,100.00
2022-09-15T01:01:35.754Z,100.00
2022-09-15T01:04:05.535Z,100.00
2022-09-15T01:06:37.906Z,100.00
2022-09-15T01:09:11.845Z,100.00
2022-09-15T01:11:41.958Z,100.00
2022-09-15T01:14:10.350Z,100.00
2022-09-15T01:16:48.674Z,100.00
2022-09-15T01:19:43.866Z,100.00
2022-09-15T01:22:23.315Z,100.00
2022-09-15T01:25:06.405Z,100.00
2022-09-15T01:27:55.945Z,100.00
2022-09-15T01:30:26.267Z,100.00
2022-09-15T01:33:08.885Z,100.00
2022-09-15T01:35:54.105Z,100.00
2022-09-15T01:38:32.596Z,100.00
2022-09-15T01:41:06.908Z,100.00
2022-09-15T01:43:37.998Z,100.00
2022-09-15T01:46:08.889Z,100.00
2022-09-15T01:48:38.305Z,100.00
2022-09-15T01:51:08.072Z,100.00
2022-09-15T01:53:37.433Z,100.00
2022-09-15T01:56:09.655Z,100.00
2022-09-15T01:58:39.405Z,100.00
2022-09-15T02:01:12.561Z,100.00
2022-09-15T02:03:46.197Z,100.00
2022-09-15T02:06:18.025Z,100.00
2022-09-15T02:08:52.443Z,100.00
2022-09-15T02:11:25.305Z,100.00
2022-09-15T02:14:00.835Z,100.00
2022-09-15T02:16:35.152Z,100.00
2022-09-15T02:19:11.219Z,100.00
2022-09-15T02:21:52.396Z,100.00
2022-09-15T02:24:25.927Z,100.00
2022-09-15T02:26:55.905Z,100.00
2022-09-15T02:29:27.405Z,100.00
2022-09-15T02:32:06.837Z,100.00
2022-09-15T02:34:38.585Z,100.00
2022-09-15T02:37:07.843Z,100.00
2022-09-15T02:39:41.119Z,100.00
2022-09-15T02:42:10.726Z,100.00
2022-09-15T02:44:39.013Z,100.00
2022-09-15T02:47:08.715Z,100.00
2022-09-15T02:49:37.048Z,100.00
2022-09-15T02:52:05.726Z,100.00
2022-09-15T02:54:33.915Z,100.00
2022-09-15T02:57:02.107Z,100.00
2022-09-15T02:59:50.775Z,100.00
2022-09-15T03:02:21.090Z,100.00
2022-09-15T03:04:49.585Z,100.00
2022-09-15T03:07:18.904Z,100.00
2022-09-15T03:09:47.398Z,100.00
2022-09-15T03:12:16.135Z,100.00
2022-09-15T03:14:44.586Z,100.00
2022-09-15T03:17:12.775Z,100.00
2022-09-15T03:19:42.337Z,100.00
2022-09-15T03:22:10.606Z,100.00
2022-09-15T03:24:39.095Z,100.00
2022-09-15T03:27:07.306Z,100.00
2022-09-15T03:29:35.527Z,100.00
2022-09-15T03:32:04.155Z,100.00
2022-09-15T03:34:32.355Z,100.00
2022-09-15T03:37:01.903Z,100.00
2022-09-15T03:39:30.125Z,100.00
2022-09-15T03:41:58.656Z,100.00
2022-09-15T03:44:27.127Z,100.00
2022-09-15T03:46:55.239Z,100.00
2022-09-15T03:49:24.607Z,100.00
2022-09-15T03:51:53.155Z,100.00
2022-09-15T03:54:22.825Z,100.00
2022-09-15T03:56:52.015Z,100.00
2022-09-15T03:59:20.806Z,100.00
2022-09-15T04:01:49.210Z,100.00
2022-09-15T04:04:18.085Z,100.00
2022-09-15T04:06:46.389Z,100.00
2022-09-15T04:09:14.795Z,100.00
2022-09-15T04:11:44.196Z,100.00
2022-09-15T04:14:12.415Z,100.00
2022-09-15T04:16:40.610Z,100.00
2022-09-15T04:19:08.986Z,100.00
2022-09-15T04:21:37.116Z,100.00
2022-09-15T04:24:06.047Z,100.00
2022-09-15T04:26:36.126Z,100.00
2022-09-15T04:29:06.865Z,100.00
2022-09-15T04:31:35.115Z,100.00
2022-09-15T04:34:03.553Z,100.00
2022-09-15T04:36:31.856Z,100.00
2022-09-15T04:39:00.605Z,100.00
2022-09-15T04:41:29.256Z,100.00
2022-09-15T04:43:57.543Z,100.00
2022-09-15T04:46:27.569Z,100.00
2022-09-15T04:48:57.355Z,100.00
2022-09-15T04:51:27.325Z,100.00
2022-09-15T04:53:55.785Z,100.00
2022-09-15T04:56:25.825Z,100.00
2022-09-15T04:58:59.483Z,100.00
2022-09-15T05:01:32.472Z,100.00
2022-09-15T05:04:04.059Z,100.00
2022-09-15T05:06:33.140Z,100.00
2022-09-15T05:09:04.437Z,100.00
2022-09-15T05:11:36.123Z,100.00
2022-09-15T05:14:04.596Z,100.00
2022-09-15T05:16:34.178Z,100.00
2022-09-15T05:19:04.845Z,100.00
2022-09-15T05:21:33.756Z,100.00
2022-09-15T05:24:02.325Z,100.00
2022-09-15T05:26:31.174Z,100.00
2022-09-15T05:28:59.425Z,100.00
2022-09-15T05:31:31.763Z,100.00
2022-09-15T05:34:02.315Z,100.00
2022-09-15T05:36:31.325Z,100.00
2022-09-15T05:39:00.308Z,100.00
2022-09-15T05:41:29.465Z,100.00
2022-09-15T05:43:59.409Z,100.00
2022-09-15T05:46:29.542Z,100.00
2022-09-15T05:48:59.535Z,100.00
2022-09-15T05:51:30.252Z,100.00
2022-09-15T05:53:58.527Z,100.00
2022-09-15T05:56:26.716Z,100.00
2022-09-15T05:58:54.905Z,100.00
2022-09-15T06:01:25.338Z,100.00
2022-09-15T06:03:54.258Z,100.00
2022-09-15T06:06:23.635Z,100.00
2022-09-15T06:08:58.449Z,100.00
2022-09-15T06:11:29.276Z,100.00
2022-09-15T06:13:59.759Z,100.00
2022-09-15T06:16:28.476Z,100.00
2022-09-15T06:18:56.863Z,100.00
2022-09-15T06:21:28.085Z,100.00
2022-09-15T06:23:59.537Z,100.00
2022-09-15T06:26:29.084Z,100.00
2022-09-15T06:28:58.915Z,100.00
2022-09-15T06:31:28.575Z,100.00
2022-09-15T06:33:57.964Z,100.00
2022-09-15T06:36:28.525Z,100.00
2022-09-15T06:38:58.552Z,100.00
2022-09-15T06:41:38.217Z,100.00
2022-09-15T06:44:19.305Z,100.00
2022-09-15T06:46:47.924Z,100.00
2022-09-15T06:49:16.102Z,100.00
2022-09-15T06:51:44.195Z,100.00
2022-09-15T06:54:14.667Z,100.00
2022-09-15T06:56:44.026Z,100.00
2022-09-15T06:59:13.069Z,100.00
2022-09-15T07:01:41.636Z,100.00
2022-09-15T07:04:10.462Z,100.00
2022-09-15T07:06:40.765Z,100.00
2022-09-15T07:09:11.091Z,100.00
2022-09-15T07:11:42.495Z,100.00
2022-09-15T07:14:11.935Z,100.00
2022-09-15T07:16:40.193Z,100.00
2022-09-15T07:19:08.454Z,100.00
2022-09-15T07:21:37.423Z,100.00
2022-09-15T07:24:07.558Z,100.00
2022-09-15T07:26:36.135Z,100.00
2022-09-15T07:29:07.373Z,100.00
2022-09-15T07:31:38.772Z,100.00
2022-09-15T07:34:08.045Z,100.00
2022-09-15T07:36:36.614Z,100.00
2022-09-15T07:39:06.266Z,100.00
2022-09-15T07:41:34.988Z,100.00
2022-09-15T07:44:03.395Z,100.00
2022-09-15T07:46:33.876Z,100.00
2022-09-15T07:49:03.975Z,100.00
2022-09-15T07:51:32.656Z,100.00
2022-09-15T07:54:00.802Z,100.00
2022-09-15T07:56:29.206Z,100.00
2022-09-15T07:58:58.235Z,100.00
2022-09-15T08:01:26.518Z,100.00
2022-09-15T08:03:56.107Z,100.00
2022-09-15T08:06:26.593Z,100.00
2022-09-15T08:09:00.139Z,100.00
2022-09-15T08:11:29.824Z,100.00
2022-09-15T08:13:58.095Z,100.00
2022-09-15T08:16:26.452Z,100.00
2022-09-15T08:18:56.213Z,100.00
2022-09-15T08:21:25.891Z,100.00
2022-09-15T08:23:56.130Z,100.00
2022-09-15T08:26:25.575Z,100.00
2022-09-15T08:28:53.973Z,100.00
2022-09-15T08:31:24.300Z,100.00
2022-09-15T08:33:54.076Z,100.00
2022-09-15T08:36:24.637Z,100.00
2022-09-15T08:38:52.943Z,100.00
2022-09-15T08:41:26.075Z,100.00
2022-09-15T08:43:59.019Z,100.00
2022-09-15T08:46:32.857Z,100.00
2022-09-15T08:49:07.895Z,100.00
2022-09-15T08:51:44.708Z,100.00
2022-09-15T08:54:17.856Z,100.00
2022-09-15T08:56:46.322Z,100.00
2022-09-15T08:59:16.997Z,100.00
2022-09-15T09:02:02.528Z,100.00
2022-09-15T09:04:48.595Z,100.00
2022-09-15T09:07:32.296Z,100.00
2022-09-15T09:10:13.100Z,100.00
2022-09-15T09:12:54.045Z,100.00
2022-09-15T09:15:33.955Z,100.00
2022-09-15T09:18:23.203Z,100.00
2022-09-15T09:21:04.205Z,100.00
2022-09-15T09:23:48.083Z,100.00
2022-09-15T09:26:16.648Z,100.00
2022-09-15T09:28:51.057Z,100.00
2022-09-15T09:31:22.934Z,100.00
2022-09-15T09:33:54.975Z,100.00
2022-09-15T09:36:23.495Z,100.00
2022-09-15T09:38:53.221Z,100.00
2022-09-15T09:41:28.628Z,100.00
2022-09-15T09:43:57.565Z,100.00
2022-09-15T09:46:25.869Z,100.00
2022-09-15T09:48:58.354Z,100.00
2022-09-15T09:51:52.243Z,99.51
2022-09-15T09:54:26.105Z,97.93
2022-09-15T09:56:55.919Z,96.88
2022-09-15T09:59:35.528Z,98.93
2022-09-15T10:02:16.980Z,99.10
2022-09-15T10:04:47.087Z,100.00
2022-09-15T10:07:17.835Z,99.15
2022-09-15T10:09:56.204Z,100.00
2022-09-15T10:12:29.455Z,99.04
2022-09-15T10:15:00.364Z,98.63
2022-09-15T10:17:40.575Z,98.94
2022-09-15T10:20:25.510Z,100.00
2022-09-15T10:23:02.884Z,100.00
2022-09-15T10:25:57.531Z,99.98
2022-09-15T10:28:25.984Z,95.65
2022-09-15T10:31:03.626Z,92.25
2022-09-15T10:33:35.126Z,97.70
2022-09-15T10:36:07.348Z,98.17
2022-09-15T10:38:42.690Z,98.29
2022-09-15T10:41:24.305Z,95.85
2022-09-15T10:44:11.045Z,96.36
2022-09-15T10:46:50.425Z,94.75
2022-09-15T10:49:34.425Z,95.95
2022-09-15T10:52:12.375Z,96.81
2022-09-15T10:54:59.317Z,94.86
2022-09-15T10:57:45.695Z,93.74
2022-09-15T11:00:20.902Z,92.37
2022-09-15T11:03:06.025Z,94.40
2022-09-15T11:05:45.933Z,95.20
2022-09-15T11:08:32.052Z,93.38
2022-09-15T11:11:07.675Z,93.19
2022-09-15T11:13:50.290Z,94.98
2022-09-15T11:16:31.602Z,95.86
2022-09-15T11:19:17.436Z,94.29
2022-09-15T11:21:48.995Z,92.64
2022-09-15T11:24:40.895Z,96.78
2022-09-15T11:27:18.005Z,97.60
2022-09-15T11:30:08.658Z,96.30
2022-09-15T11:32:45.045Z,97.36
2022-09-15T11:35:34.194Z,96.58
2022-09-15T11:38:13.224Z,97.93
2022-09-15T11:40:48.708Z,99.48
2022-09-15T11:43:23.642Z,98.77
2022-09-15T11:45:58.909Z,99.31
2022-09-15T11:48:34.727Z,100.00
2022-09-15T11:51:04.424Z,100.00
2022-09-15T11:53:38.753Z,99.19
2022-09-15T11:56:14.503Z,97.52
2022-09-15T11:58:55.925Z,97.24
2022-09-15T12:01:28.928Z,96.10
2022-09-15T12:04:01.858Z,99.54
2022-09-15T12:06:35.606Z,96.87
2022-09-15T12:09:06.017Z,96.79
2022-09-15T12:11:39.473Z,92.82
2022-09-15T12:14:10.666Z,95.92
2022-09-15T12:16:40.345Z,93.93
2022-09-15T12:19:20.318Z,92.88
2022-09-15T12:21:53.955Z,92.29
2022-09-15T12:24:34.964Z,91.00
2022-09-15T12:27:03.315Z,91.74
2022-09-15T12:29:42.168Z,94.19
2022-09-15T12:32:33.353Z,90.92
2022-09-15T12:35:07.947Z,89.54
2022-09-15T12:37:44.195Z,88.79
2022-09-15T12:40:29.310Z,88.25
2022-09-15T12:42:58.175Z,87.94
2022-09-15T12:45:29.774Z,88.12
2022-09-15T12:48:04.204Z,87.92
2022-09-15T12:50:34.114Z,86.53
2022-09-15T12:53:04.965Z,86.30
2022-09-15T12:55:36.434Z,88.23
2022-09-15T12:58:10.357Z,89.51
2022-09-15T13:00:49.894Z,87.29
2022-09-15T13:04:08.655Z,88.88
2022-09-15T13:06:38.598Z,89.25
2022-09-15T13:09:27.627Z,84.73
2022-09-15T13:11:57.795Z,86.59
2022-09-15T13:14:34.685Z,87.04
2022-09-15T13:17:09.117Z,86.74
2022-09-15T13:19:43.657Z,86.56
2022-09-15T13:22:23.576Z,90.20
2022-09-15T13:24:59.276Z,89.50
2022-09-15T13:27:36.935Z,85.49
2022-09-15T13:30:23.115Z,86.81
2022-09-15T13:33:00.846Z,85.98
2022-09-15T13:35:43.916Z,90.06
2022-09-15T13:38:42.157Z,91.86
2022-09-15T13:41:25.326Z,95.02
2022-09-15T13:44:12.527Z,94.90
2022-09-15T13:46:51.725Z,97.36
2022-09-15T13:49:39.105Z,95.24
2022-09-15T13:52:20.785Z,98.25
2022-09-15T13:55:17.267Z,99.08
2022-09-15T14:00:46.895Z,99.13
2022-09-15T14:03:18.436Z,100.00
2022-09-15T14:05:47.158Z,100.00
2022-09-15T14:08:18.866Z,99.81
2022-09-15T14:10:54.887Z,100.00
2022-09-15T14:13:26.639Z,97.23
2022-09-15T14:15:59.184Z,99.24
2022-09-15T14:18:28.449Z,97.64
2022-09-15T14:21:02.063Z,96.70
2022-09-15T14:23:30.693Z,96.20
2022-09-15T14:26:02.530Z,98.50
2022-09-15T14:28:33.359Z,97.94
2022-09-15T14:31:02.338Z,96.75
2022-09-15T14:33:38.085Z,96.20
2022-09-15T14:36:27.185Z,96.97
2022-09-15T14:39:18.736Z,89.93
2022-09-15T14:41:48.709Z,90.76
2022-09-15T14:47:12.814Z,93.61
2022-09-15T14:49:41.095Z,94.43
2022-09-15T14:52:25.236Z,96.28
2022-09-15T14:54:58.529Z,94.83
2022-09-15T14:57:31.535Z,93.10
2022-09-15T15:00:05.074Z,91.06
2022-09-15T15:02:46.975Z,92.22
2022-09-15T15:05:20.428Z,93.75
2022-09-15T15:07:50.115Z,94.32
2022-09-15T15:10:22.903Z,92.04
2022-09-15T15:12:56.664Z,94.26
2022-09-15T15:15:25.075Z,93.50
2022-09-15T15:17:55.475Z,93.04
2022-09-15T15:20:27.123Z,92.10
2022-09-15T15:23:21.885Z,94.39
2022-09-15T15:25:50.793Z,94.77
2022-09-15T15:28:39.356Z,95.21
2022-09-15T15:31:14.908Z,95.02
2022-09-15T15:33:48.624Z,96.19
2022-09-15T15:36:21.575Z,97.42
2022-09-15T15:38:54.455Z,100.00
2022-09-15T15:41:25.633Z,99.30
2022-09-15T15:44:00.112Z,97.20
2022-09-15T15:46:49.913Z,95.71
2022-09-15T15:49:19.262Z,94.32
2022-09-15T15:51:47.475Z,92.17
2022-09-15T15:54:15.725Z,91.05
2022-09-15T15:56:43.945Z,94.56
2022-09-15T15:59:15.235Z,88.40
2022-09-15T16:01:43.462Z,89.13
2022-09-15T16:04:13.277Z,90.99
2022-09-15T16:06:41.843Z,94.03
2022-09-15T16:09:10.764Z,90.31
2022-09-15T16:11:39.013Z,90.85
2022-09-15T16:14:07.261Z,87.44
2022-09-15T16:16:36.878Z,91.10
2022-09-15T16:19:05.224Z,87.00
2022-09-15T16:21:37.458Z,88.75
2022-09-15T16:24:06.352Z,87.89
2022-09-15T16:26:35.906Z,88.77
2022-09-15T16:29:04.244Z,90.37
2022-09-15T16:31:33.634Z,89.74
2022-09-15T16:34:03.535Z,88.67
2022-09-15T16:36:34.304Z,92.03
2022-09-15T16:39:02.884Z,91.49
2022-09-15T16:41:33.059Z,89.51
2022-09-15T16:44:04.434Z,87.06
2022-09-15T16:46:32.601Z,88.70
2022-09-15T16:49:00.775Z,88.41
2022-09-15T16:51:31.567Z,90.33
2022-09-15T16:54:00.436Z,88.84
2022-09-15T16:56:29.384Z,91.70
2022-09-15T16:59:00.429Z,91.90
2022-09-15T17:01:29.454Z,88.74
2022-09-15T17:03:57.685Z,87.19
2022-09-15T17:06:25.884Z,85.75
2022-09-15T17:08:55.689Z,89.72
2022-09-15T17:11:25.564Z,86.86
2022-09-15T17:13:53.998Z,93.39
2022-09-15T17:16:22.494Z,92.87
2022-09-15T17:18:50.864Z,89.83
2022-09-15T17:21:19.879Z,86.94
2022-09-15T17:23:49.586Z,84.18
2022-09-15T17:26:21.743Z,86.02
2022-09-15T17:28:50.584Z,87.29
2022-09-15T17:31:20.660Z,85.80
2022-09-15T17:33:49.956Z,85.85
2022-09-15T17:36:18.777Z,88.25
2022-09-15T17:38:48.899Z,85.54
2022-09-15T17:41:20.414Z,87.90
2022-09-15T17:43:49.552Z,86.86
2022-09-15T17:46:17.748Z,86.53
2022-09-15T17:48:46.065Z,85.26
2022-09-15T17:51:17.284Z,81.98
2022-09-15T17:53:47.112Z,84.85
2022-09-15T17:56:15.435Z,85.83
2022-09-15T17:58:44.875Z,84.12
2022-09-15T18:01:14.468Z,82.75
2022-09-15T18:03:44.904Z,84.22
2022-09-15T18:06:13.464Z,88.77
2022-09-15T18:08:41.813Z,89.45
2022-09-15T18:11:12.025Z,89.53
2022-09-15T18:13:40.272Z,89.31
2022-09-15T18:16:14.080Z,90.40
2022-09-15T18:18:43.168Z,92.98
2022-09-15T18:21:25.817Z,91.83
2022-09-15T18:23:54.806Z,92.58
2022-09-15T18:26:26.351Z,93.62
2022-09-15T18:28:56.051Z,92.35
2022-09-15T18:31:25.609Z,91.75
2022-09-15T18:33:54.280Z,90.75
2022-09-15T18:36:22.664Z,92.12
2022-09-15T18:38:51.024Z,92.47
2022-09-15T18:41:19.465Z,95.51
2022-09-15T18:43:49.159Z,94.96
2022-09-15T18:46:18.403Z,95.15
2022-09-15T18:48:48.405Z,97.59
2022-09-15T18:51:24.192Z,97.88
2022-09-15T18:53:58.495Z,97.67
2022-09-15T18:56:26.644Z,98.34
2022-09-15T18:58:55.365Z,100.00
2022-09-15T19:01:24.414Z,99.74
2022-09-15T19:03:54.363Z,100.00
2022-09-15T19:06:22.724Z,100.00
2022-09-15T19:08:51.174Z,100.00
2022-09-15T19:11:19.886Z,100.00
2022-09-15T19:13:48.045Z,100.00
2022-09-15T19:16:16.241Z,100.00
2022-09-15T19:18:46.379Z,100.00
2022-09-15T19:21:16.075Z,100.00
2022-09-15T19:23:45.125Z,100.00
2022-09-15T19:26:16.894Z,100.00
2022-09-15T19:28:45.797Z,100.00
2022-09-15T19:31:14.453Z,100.00
2022-09-15T19:33:42.904Z,100.00
2022-09-15T19:36:27.488Z,100.00
2022-09-15T19:38:58.525Z,100.00
2022-09-15T19:41:31.234Z,100.00
2022-09-15T19:44:02.220Z,100.00
2022-09-15T19:46:31.085Z,100.00
2022-09-15T19:48:59.389Z,100.00
2022-09-15T19:51:31.514Z,100.00
2022-09-15T19:54:01.837Z,100.00
2022-09-15T19:56:31.186Z,100.00
2022-09-15T19:59:00.336Z,100.00
2022-09-15T20:01:30.457Z,100.00
2022-09-15T20:03:58.742Z,100.00
2022-09-15T20:06:31.675Z,100.00
2022-09-15T20:09:01.962Z,100.00
2022-09-15T20:11:31.294Z,100.00
2022-09-15T20:13:59.946Z,100.00
2022-09-15T20:16:28.174Z,100.00
2022-09-15T20:18:56.764Z,100.00
2022-09-15T20:21:48.563Z,100.00
2022-09-15T20:24:16.559Z,100.00
2022-09-15T20:26:44.944Z,100.00
2022-09-15T20:29:13.664Z,100.00
2022-09-15T20:31:42.663Z,100.00
2022-09-15T20:34:11.123Z,100.00
2022-09-15T20:36:39.922Z,100.00
2022-09-15T20:39:12.939Z,100.00
2022-09-15T20:41:45.827Z,100.00
2022-09-15T20:44:14.651Z,100.00
2022-09-15T20:46:42.842Z,100.00
2022-09-15T20:49:11.824Z,100.00
2022-09-15T20:51:40.254Z,100.00
2022-09-15T20:54:08.586Z,100.00
2022-09-15T20:56:37.374Z,100.00
2022-09-15T20:59:10.381Z,100.00
2022-09-15T21:01:40.049Z,100.00
2022-09-15T21:04:09.707Z,100.00
2022-09-15T21:06:38.684Z,100.00
2022-09-15T21:09:07.585Z,100.00
2022-09-15T21:11:36.056Z,100.00
2022-09-15T21:14:05.971Z,100.00
2022-09-15T21:16:34.984Z,100.00
2022-09-15T21:19:03.282Z,100.00
2022-09-15T21:21:33.744Z,100.00
2022-09-15T21:24:04.132Z,100.00
2022-09-15T21:26:34.604Z,100.00
2022-09-15T21:29:04.303Z,100.00
2022-09-15T21:31:34.627Z,100.00
2022-09-15T21:34:02.874Z,100.00
2022-09-15T21:36:32.136Z,100.00
2022-09-15T21:39:02.741Z,100.00
2022-09-15T21:41:31.287Z,100.00
2022-09-15T21:44:01.112Z,100.00
2022-09-15T21:46:31.387Z,100.00
2022-09-15T21:49:01.573Z,100.00
2022-09-15T21:51:31.256Z,100.00
2022-09-15T21:54:00.844Z,100.00
2022-09-15T21:56:31.296Z,100.00
2022-09-15T21:58:59.644Z,100.00
2022-09-15T22:01:30.299Z,100.00
2022-09-15T22:04:01.658Z,100.00
2022-09-15T22:06:32.420Z,100.00
2022-09-15T22:09:55.334Z,100.00
2022-09-15T22:12:53.354Z,100.00
2022-09-15T22:15:21.675Z,100.00
2022-09-15T22:17:49.923Z,100.00
2022-09-15T22:20:19.522Z,100.00
2022-09-15T22:22:47.774Z,100.00
2022-09-15T22:25:21.230Z,100.00
2022-09-15T22:27:50.233Z,100.00
2022-09-15T22:30:18.535Z,100.00
2022-09-15T22:32:46.774Z,100.00
2022-09-15T22:35:15.294Z,100.00
2022-09-15T22:37:44.814Z,100.00
2022-09-15T22:40:12.943Z,100.00
2022-09-15T22:42:41.324Z,100.00
2022-09-15T22:45:11.615Z,100.00
2022-09-15T22:47:39.925Z,100.00
2022-09-15T22:50:08.494Z,100.00
2022-09-15T22:52:36.805Z,100.00
2022-09-15T22:55:07.144Z,100.00
2022-09-15T22:57:39.555Z,100.00
2022-09-15T23:00:09.444Z,100.00
2022-09-15T23:02:37.865Z,100.00
2022-09-15T23:05:07.334Z,100.00
2022-09-15T23:07:35.576Z,100.00
2022-09-15T23:10:04.115Z,100.00
2022-09-15T23:12:34.874Z,100.00
2022-09-15T23:15:04.594Z,100.00
2022-09-15T23:17:32.962Z,100.00
2022-09-15T23:20:01.465Z,100.00
2022-09-15T23:22:29.802Z,100.00
2022-09-15T23:24:58.172Z,100.00
2022-09-15T23:27:26.227Z,100.00
2022-09-15T23:29:55.935Z,100.00
2022-09-15T23:32:24.274Z,100.00
2022-09-15T23:34:52.924Z,100.00
2022-09-15T23:37:21.101Z,100.00
2022-09-15T23:39:49.330Z,100.00
2022-09-15T23:42:18.994Z,100.00
2022-09-15T23:44:47.642Z,100.00
2022-09-15T23:47:17.185Z,100.00
2022-09-15T23:49:45.384Z,100.00
2022-09-15T23:52:13.786Z,100.00
2022-09-15T23:54:41.996Z,100.00
2022-09-15T23:57:11.754Z,100.00
2022-09-15T23:59:40.014Z,100.00
